Moscow, Indiana
Current Conditions -  °F | °C
As of 5:53 AM on Friday 31 Oct 2014 (Local Time) from KGEZ Reporting Station
Overcast Overcast  
Wind Chill: 44°   Ceiling: 4300
Heat Index: 46°   Visibility: 10mi
Dew Point: 40°   Wind: 5mph
Humidity: 79%   Direction: 270°W
Pressure: 29.98"   Gusts: NA
Location:  39.4961°N, 85.5177°W
Report Text: KGEZ 310953Z AUTO 27004KT 10SM OVC043 08/04 A2998 RMK AO2 SLP154 T00780044
Loading
Personal Weather Stations






























Interactive Weather Map
Tropical Storm Tracking
New forecast layout! Learn more

10-Day Weather Forecast

Advertisements
Track Severe Weather on mobile